createdAt,value
2022-12-18T00:01:22.039Z,102745.38
2022-12-18T00:03:49.722Z,102748.72
2022-12-18T00:06:17.627Z,102754.31
2022-12-18T00:08:45.802Z,102755.81
2022-12-18T00:11:15.609Z,102759.41
2022-12-18T00:13:43.412Z,102767.69
2022-12-18T00:16:14.351Z,102761.72
2022-12-18T00:18:42.560Z,102766.19
2022-12-18T00:21:11.665Z,102751.16
2022-12-18T00:23:40.122Z,102744.91
2022-12-18T00:26:11.372Z,102748.47
2022-12-18T00:28:38.526Z,102739.81
2022-12-18T00:31:08.574Z,102729.97
2022-12-18T00:33:36.964Z,102732.16
2022-12-18T00:36:05.193Z,102737.25
2022-12-18T00:38:32.926Z,102735.47
2022-12-18T00:40:59.688Z,102733.91
2022-12-18T00:43:27.640Z,102734.97
2022-12-18T00:45:54.837Z,102737.50
2022-12-18T00:48:22.771Z,102744.38
2022-12-18T00:50:50.275Z,102748.34
2022-12-18T00:53:18.201Z,102746.16
2022-12-18T00:55:46.658Z,102739.03
2022-12-18T00:58:16.728Z,102747.19
2022-12-18T01:00:45.495Z,102743.34
2022-12-18T01:03:15.357Z,102739.13
2022-12-18T01:05:43.040Z,102755.59
2022-12-18T01:08:10.434Z,102751.00
2022-12-18T01:10:37.454Z,102749.94
2022-12-18T01:13:04.828Z,102747.53
2022-12-18T01:15:31.918Z,102741.53
2022-12-18T01:17:58.656Z,102735.69
2022-12-18T01:20:25.419Z,102739.88
2022-12-18T01:22:52.222Z,102732.63
2022-12-18T01:25:19.044Z,102731.34
2022-12-18T01:27:45.735Z,102721.16
2022-12-18T01:30:13.039Z,102731.84
2022-12-18T01:32:40.080Z,102732.13
2022-12-18T01:35:07.878Z,102736.44
2022-12-18T01:37:34.730Z,102728.31
2022-12-18T01:40:01.484Z,102731.38
2022-12-18T01:42:28.636Z,102729.69
2022-12-18T01:44:58.913Z,102732.09
2022-12-18T01:47:28.391Z,102720.13
2022-12-18T01:49:56.895Z,102724.44
2022-12-18T01:52:29.260Z,102730.78
2022-12-18T01:54:57.191Z,102735.50
2022-12-18T01:57:26.301Z,102743.00
2022-12-18T01:59:57.795Z,102735.53
2022-12-18T02:02:27.814Z,102737.28
2022-12-18T02:04:55.009Z,102735.16
2022-12-18T02:07:48.495Z,102734.75
2022-12-18T02:11:01.388Z,102738.69
2022-12-18T02:13:31.934Z,102735.41
2022-12-18T02:16:22.517Z,102741.16
2022-12-18T02:18:55.169Z,102738.22
2022-12-18T02:21:37.263Z,102740.53
2022-12-18T02:24:34.377Z,102734.44
2022-12-18T02:27:05.852Z,102727.56
2022-12-18T02:29:54.368Z,102718.38
2022-12-18T02:32:32.768Z,102713.66
2022-12-18T02:35:02.813Z,102714.81
2022-12-18T02:37:31.776Z,102713.56
2022-12-18T02:40:00.451Z,102714.31
2022-12-18T02:42:29.077Z,102726.31
2022-12-18T02:44:55.995Z,102728.31
2022-12-18T02:47:25.183Z,102727.06
2022-12-18T02:50:10.965Z,102734.16
2022-12-18T02:52:53.148Z,102727.81
2022-12-18T02:55:41.812Z,102732.91
2022-12-18T02:58:16.241Z,102729.72
2022-12-18T03:01:16.645Z,102725.78
2022-12-18T03:03:48.791Z,102731.75
2022-12-18T03:06:25.681Z,102734.97
2022-12-18T03:08:59.425Z,102722.72
2022-12-18T03:11:49.790Z,102716.22
2022-12-18T03:14:21.010Z,102713.91
2022-12-18T03:16:53.452Z,102703.88
2022-12-18T03:19:25.475Z,102703.38
2022-12-18T03:21:58.270Z,102706.91
2022-12-18T03:24:29.462Z,102705.13
2022-12-18T03:27:03.170Z,102700.03
2022-12-18T03:29:36.241Z,102700.03
2022-12-18T03:32:09.143Z,102699.28
2022-12-18T03:34:39.753Z,102708.06
2022-12-18T03:37:07.822Z,102707.19
2022-12-18T03:39:37.376Z,102702.34
2022-12-18T03:42:22.415Z,102707.69
2022-12-18T03:44:58.341Z,102701.06
2022-12-18T03:47:59.650Z,102695.19
2022-12-18T03:50:42.448Z,102694.94
2022-12-18T03:53:15.582Z,102689.59
2022-12-18T03:55:44.647Z,102698.72
2022-12-18T03:58:17.358Z,102696.97
2022-12-18T04:00:45.875Z,102692.97
2022-12-18T04:03:14.971Z,102689.91
2022-12-18T04:05:44.043Z,102684.41
2022-12-18T04:08:11.431Z,102674.44
2022-12-18T04:10:38.619Z,102685.41
2022-12-18T04:13:05.559Z,102686.41
2022-12-18T04:15:36.694Z,102678.75
2022-12-18T04:18:03.920Z,102686.78
2022-12-18T04:20:31.033Z,102686.16
2022-12-18T04:22:57.823Z,102683.06
2022-12-18T04:25:24.619Z,102688.19
2022-12-18T04:27:51.817Z,102689.03
2022-12-18T04:30:18.519Z,102690.72
2022-12-18T04:32:50.537Z,102681.00
2022-12-18T04:35:19.104Z,102686.63
2022-12-18T04:37:46.030Z,102683.06
2022-12-18T04:40:13.468Z,102671.31
2022-12-18T04:42:41.497Z,102673.34
2022-12-18T04:45:09.132Z,102674.88
2022-12-18T04:47:37.074Z,102671.31
2022-12-18T04:50:04.793Z,102669.53
2022-12-18T04:52:31.901Z,102675.53
2022-12-18T04:54:59.131Z,102677.66
2022-12-18T04:57:25.995Z,102670.31
2022-12-18T04:59:53.104Z,102669.28
2022-12-18T05:02:20.073Z,102671.75
2022-12-18T05:04:47.659Z,102666.63
2022-12-18T05:07:14.869Z,102658.34
2022-12-18T05:09:41.832Z,102652.25
2022-12-18T05:12:09.011Z,102651.81
2022-12-18T05:14:36.718Z,102661.50
2022-12-18T05:17:03.854Z,102666.63
2022-12-18T05:19:30.990Z,102659.63
2022-12-18T05:21:58.542Z,102667.38
2022-12-18T05:24:25.548Z,102664.09
2022-12-18T05:26:52.775Z,102663.19
2022-12-18T05:29:19.835Z,102669.06
2022-12-18T05:31:48.443Z,102661.44
2022-12-18T05:34:15.901Z,102663.84
2022-12-18T05:36:43.020Z,102670.09
2022-12-18T05:39:11.714Z,102677.09
2022-12-18T05:41:38.776Z,102673.31
2022-12-18T05:44:06.071Z,102674.31
2022-12-18T05:46:33.430Z,102683.75
2022-12-18T05:49:02.107Z,102683.75
2022-12-18T05:51:29.054Z,102690.88
2022-12-18T05:53:56.761Z,102685.78
2022-12-18T05:56:24.581Z,102696.38
2022-12-18T05:58:55.695Z,102699.66
2022-12-18T06:01:26.143Z,102702.09
2022-12-18T06:03:53.280Z,102713.78
2022-12-18T06:06:23.357Z,102711.41
2022-12-18T06:08:51.541Z,102715.84
2022-12-18T06:11:22.119Z,102722.47
2022-12-18T06:13:57.911Z,102727.81
2022-12-18T06:16:25.931Z,102733.91
2022-12-18T06:18:53.132Z,102735.56
2022-12-18T06:21:20.740Z,102728.03
2022-12-18T06:23:47.909Z,102721.91
2022-12-18T06:26:15.520Z,102731.97
2022-12-18T06:28:42.864Z,102716.66
2022-12-18T06:31:11.013Z,102716.91
2022-12-18T06:33:39.813Z,102713.78
2022-12-18T06:36:10.520Z,102709.16
2022-12-18T06:38:39.293Z,102712.47
2022-12-18T06:41:10.258Z,102705.88
2022-12-18T06:43:38.300Z,102694.00
2022-12-18T06:46:06.181Z,102693.38
2022-12-18T06:48:34.076Z,102692.34
2022-12-18T06:51:01.432Z,102689.78
2022-12-18T06:53:29.691Z,102686.22
2022-12-18T06:56:10.351Z,102680.88
2022-12-18T06:58:39.114Z,102673.47
2022-12-18T07:01:09.705Z,102672.22
2022-12-18T07:03:38.785Z,102664.06
2022-12-18T07:06:05.927Z,102666.38
2022-12-18T07:08:33.733Z,102666.81
2022-12-18T07:11:04.721Z,102664.50
2022-12-18T07:13:32.127Z,102672.09
2022-12-18T07:16:11.192Z,102690.41
2022-12-18T07:18:42.448Z,102684.28
2022-12-18T07:21:15.238Z,102677.66
2022-12-18T07:23:42.725Z,102678.63
2022-12-18T07:26:12.491Z,102676.34
2022-12-18T07:28:41.522Z,102674.16
2022-12-18T07:31:12.888Z,102663.34
2022-12-18T07:33:40.286Z,102669.59
2022-12-18T07:36:10.551Z,102662.72
2022-12-18T07:38:38.147Z,102661.88
2022-12-18T07:41:14.283Z,102661.63
2022-12-18T07:43:42.500Z,102657.78
2022-12-18T07:46:10.790Z,102662.56
2022-12-18T07:48:43.768Z,102675.81
2022-12-18T07:51:13.512Z,102678.44
2022-12-18T07:53:41.463Z,102674.31
2022-12-18T07:56:28.214Z,102670.72
2022-12-18T07:58:55.866Z,102670.34
2022-12-18T08:01:23.012Z,102670.59
2022-12-18T08:03:52.293Z,102666.41
2022-12-18T08:06:22.473Z,102662.06
2022-12-18T08:08:56.101Z,102643.38
2022-12-18T08:11:25.045Z,102648.88
2022-12-18T08:13:52.928Z,102641.66
2022-12-18T08:16:21.336Z,102649.69
2022-12-18T08:18:49.761Z,102651.97
2022-12-18T08:21:21.932Z,102644.72
2022-12-18T08:23:51.501Z,102629.13
2022-12-18T08:26:20.895Z,102633.31
2022-12-18T08:28:49.239Z,102621.13
2022-12-18T08:31:19.115Z,102608.03
2022-12-18T08:33:48.813Z,102602.69
2022-12-18T08:36:16.051Z,102608.28
2022-12-18T08:38:43.316Z,102604.50
2022-12-18T08:41:12.635Z,102600.03
2022-12-18T08:43:58.677Z,102603.25
2022-12-18T08:46:27.768Z,102609.59
2022-12-18T08:48:56.844Z,102614.69
2022-12-18T08:51:23.959Z,102612.66
2022-12-18T08:53:50.715Z,102611.69
2022-12-18T08:56:17.816Z,102609.75
2022-12-18T08:58:45.289Z,102613.69
2022-12-18T09:01:13.624Z,102619.31
2022-12-18T09:03:41.581Z,102599.97
2022-12-18T09:06:08.969Z,102598.94
2022-12-18T09:08:38.203Z,102595.38
2022-12-18T09:11:13.851Z,102589.00
2022-12-18T09:13:41.075Z,102584.16
2022-12-18T09:16:09.073Z,102590.53
2022-12-18T09:18:35.861Z,102596.38
2022-12-18T09:21:10.112Z,102600.16
2022-12-18T09:23:36.906Z,102585.63
2022-12-18T09:26:04.473Z,102581.25
2022-12-18T09:28:31.611Z,102579.56
2022-12-18T09:30:59.741Z,102582.75
2022-12-18T09:33:26.727Z,102580.66
2022-12-18T09:35:54.121Z,102585.38
2022-12-18T09:38:21.251Z,102587.13
2022-12-18T09:40:57.394Z,102592.66
2022-12-18T09:43:42.057Z,102590.22
2022-12-18T09:46:28.424Z,102580.13
2022-12-18T09:49:01.852Z,102577.44
2022-12-18T09:51:37.280Z,102550.22
2022-12-18T09:54:08.374Z,102549.59
2022-12-18T09:56:40.184Z,102536.72
2022-12-18T09:59:06.915Z,102546.06
2022-12-18T10:01:43.210Z,102559.81
2022-12-18T10:04:11.454Z,102549.91
2022-12-18T10:07:20.861Z,102546.44
2022-12-18T10:09:53.907Z,102534.78
2022-12-18T10:12:29.699Z,102537.22
2022-12-18T10:15:05.629Z,102544.75
2022-12-18T10:17:47.763Z,102545.97
2022-12-18T10:20:33.045Z,102538.56
2022-12-18T10:23:12.309Z,102526.59
2022-12-18T10:25:52.369Z,102519.09
2022-12-18T10:28:21.287Z,102515.97
2022-12-18T10:30:48.122Z,102504.72
2022-12-18T10:33:22.956Z,102508.47
2022-12-18T10:35:53.535Z,102494.31
2022-12-18T10:38:21.505Z,102493.41
2022-12-18T10:41:03.851Z,102495.38
2022-12-18T10:43:36.062Z,102496.31
2022-12-18T10:46:09.215Z,102498.41
2022-12-18T10:48:48.781Z,102480.69
2022-12-18T10:51:34.546Z,102483.53
2022-12-18T10:54:02.658Z,102465.06
2022-12-18T10:56:32.552Z,102477.03
2022-12-18T10:59:06.026Z,102472.75
2022-12-18T11:01:47.089Z,102460.03
2022-12-18T11:04:36.417Z,102459.31
2022-12-18T11:07:06.623Z,102465.28
2022-12-18T11:09:36.761Z,102457.66
2022-12-18T11:12:24.230Z,102456.69
2022-12-18T11:14:53.645Z,102455.28
2022-12-18T11:17:26.090Z,102454.84
2022-12-18T11:20:08.098Z,102442.69
2022-12-18T11:22:37.866Z,102440.34
2022-12-18T11:25:36.175Z,102439.66
2022-12-18T11:28:06.917Z,102445.16
2022-12-18T11:30:36.917Z,102430.06
2022-12-18T11:33:13.449Z,102417.22
2022-12-18T11:35:43.403Z,102414.19
2022-12-18T11:38:13.003Z,102405.47
2022-12-18T11:40:46.093Z,102401.38
2022-12-18T11:43:27.259Z,102395.06
2022-12-18T11:46:02.657Z,102398.78
2022-12-18T11:48:46.671Z,102399.47
2022-12-18T11:51:26.227Z,102394.16
2022-12-18T11:53:54.585Z,102394.16
2022-12-18T11:56:45.162Z,102394.38
2022-12-18T11:59:50.547Z,102398.34
2022-12-18T12:03:00.211Z,102403.97
2022-12-18T12:05:45.297Z,102397.28
2022-12-18T12:08:21.059Z,102394.34
2022-12-18T12:11:09.781Z,102389.41
2022-12-18T12:13:55.093Z,102385.88
2022-12-18T12:16:35.800Z,102389.97
2022-12-18T12:19:44.163Z,102394.25
2022-12-18T12:22:37.842Z,102385.00
2022-12-18T12:25:41.700Z,102376.47
2022-12-18T12:28:17.738Z,102362.47
2022-12-18T12:31:12.704Z,102363.66
2022-12-18T12:34:02.096Z,102363.44
2022-12-18T12:36:47.352Z,102362.78
2022-12-18T12:39:20.614Z,102371.66
2022-12-18T12:42:06.671Z,102360.72
2022-12-18T12:44:41.128Z,102357.16
2022-12-18T12:47:16.652Z,102353.78
2022-12-18T12:49:48.721Z,102347.03
2022-12-18T12:52:28.654Z,102347.59
2022-12-18T12:54:57.831Z,102340.13
2022-12-18T12:58:09.395Z,102355.22
2022-12-18T13:00:48.615Z,102359.25
2022-12-18T13:03:35.822Z,102351.53
2022-12-18T13:06:13.831Z,102349.91
2022-12-18T13:09:01.486Z,102346.69
2022-12-18T13:12:01.429Z,102344.91
2022-12-18T13:14:38.953Z,102336.72
2022-12-18T13:17:15.777Z,102331.56
2022-12-18T13:25:42.305Z,102310.19
2022-12-18T13:28:26.216Z,102317.03
2022-12-18T13:30:59.418Z,102325.63
2022-12-18T13:33:27.126Z,102305.38
2022-12-18T13:36:13.219Z,102289.63
2022-12-18T13:38:43.867Z,102285.78
2022-12-18T13:41:19.167Z,102289.13
2022-12-18T13:43:49.122Z,102282.06
2022-12-18T13:46:23.190Z,102280.28
2022-12-18T13:48:56.232Z,102276.59
2022-12-18T13:51:25.311Z,102273.38
2022-12-18T13:53:58.485Z,102274.00
2022-12-18T13:56:31.854Z,102264.69
2022-12-18T13:59:18.597Z,102267.91
2022-12-18T14:01:56.389Z,102268.06
2022-12-18T14:04:35.850Z,102264.34
2022-12-18T14:07:04.405Z,102260.84
2022-12-18T14:09:37.613Z,102260.66
2022-12-18T14:12:26.256Z,102263.09
2022-12-18T14:14:55.308Z,102274.31
2022-12-18T14:17:24.034Z,102267.25
2022-12-18T14:19:52.519Z,102243.31
2022-12-18T14:22:30.944Z,102244.81
2022-12-18T14:25:13.668Z,102244.91
2022-12-18T14:28:07.630Z,102231.75
2022-12-18T14:30:40.620Z,102232.69
2022-12-18T14:33:15.231Z,102223.88
2022-12-18T14:35:53.905Z,102225.59
2022-12-18T14:38:23.654Z,102228.03
2022-12-18T14:41:05.960Z,102227.56
2022-12-18T14:43:35.641Z,102231.59
2022-12-18T14:46:04.465Z,102230.75
2022-12-18T14:48:37.013Z,102224.34
2022-12-18T14:51:17.817Z,102216.63
2022-12-18T14:53:54.370Z,102213.41
2022-12-18T14:56:25.716Z,102204.66
2022-12-18T14:58:56.569Z,102211.97
2022-12-18T15:01:26.995Z,102204.56
2022-12-18T15:03:56.778Z,102213.25
2022-12-18T15:06:44.379Z,102212.22
2022-12-18T15:09:24.272Z,102213.47
2022-12-18T15:11:57.771Z,102206.91
2022-12-18T15:14:38.109Z,102211.31
2022-12-18T15:17:15.814Z,102205.84
2022-12-18T15:19:44.696Z,102200.38
2022-12-18T15:22:28.244Z,102196.84
2022-12-18T15:24:57.168Z,102200.38
2022-12-18T15:27:27.985Z,102189.53
2022-12-18T15:30:10.650Z,102192.59
2022-12-18T15:32:39.071Z,102189.13
2022-12-18T15:35:12.092Z,102188.00
2022-12-18T15:37:41.760Z,102192.41
2022-12-18T15:40:13.925Z,102186.56
2022-12-18T15:43:00.040Z,102191.31
2022-12-18T15:45:26.961Z,102184.81
2022-12-18T15:47:53.724Z,102190.47
2022-12-18T15:50:22.526Z,102177.56
2022-12-18T15:52:52.113Z,102189.38
2022-12-18T15:55:42.834Z,102197.47
2022-12-18T15:58:11.283Z,102187.53
2022-12-18T16:00:41.135Z,102182.22
2022-12-18T16:03:10.391Z,102190.25
2022-12-18T16:05:37.529Z,102191.66
2022-12-18T16:08:04.526Z,102188.47
2022-12-18T16:10:31.749Z,102187.69
2022-12-18T16:12:59.167Z,102196.19
2022-12-18T16:15:26.615Z,102196.97
2022-12-18T16:17:53.317Z,102200.19
2022-12-18T16:20:23.006Z,102202.59
2022-12-18T16:22:50.611Z,102197.09
2022-12-18T16:25:25.215Z,102196.94
2022-12-18T16:27:53.508Z,102184.97
2022-12-18T16:30:23.732Z,102193.56
2022-12-18T16:32:51.048Z,102180.56
2022-12-18T16:35:18.170Z,102174.97
2022-12-18T16:37:45.165Z,102185.97
2022-12-18T16:40:14.629Z,102186.50
2022-12-18T16:42:43.309Z,102171.25
2022-12-18T16:45:13.294Z,102178.16
2022-12-18T16:47:40.916Z,102171.66
2022-12-18T16:50:09.080Z,102171.09
2022-12-18T16:52:36.228Z,102170.59
2022-12-18T16:55:04.051Z,102175.72
2022-12-18T16:57:31.355Z,102168.44
2022-12-18T17:00:04.461Z,102168.34
2022-12-18T17:02:32.171Z,102141.72
2022-12-18T17:04:59.691Z,102156.16
2022-12-18T17:07:28.506Z,102137.81
2022-12-18T17:09:55.799Z,102151.81
2022-12-18T17:12:23.630Z,102141.22
2022-12-18T17:14:50.808Z,102144.56
2022-12-18T17:17:21.320Z,102140.16
2022-12-18T17:19:49.638Z,102133.81
2022-12-18T17:22:16.832Z,102132.34
2022-12-18T17:24:44.000Z,102128.66
2022-12-18T17:27:10.983Z,102137.00
2022-12-18T17:29:42.482Z,102133.00
2022-12-18T17:32:13.677Z,102134.69
2022-12-18T17:34:41.237Z,102125.84
2022-12-18T17:37:08.519Z,102116.00
2022-12-18T17:39:35.652Z,102117.13
2022-12-18T17:42:02.672Z,102118.22
2022-12-18T17:44:29.861Z,102132.63
2022-12-18T17:46:57.110Z,102137.00
2022-12-18T17:49:24.216Z,102132.19
2022-12-18T17:51:52.110Z,102135.59
2022-12-18T17:54:19.349Z,102147.25
2022-12-18T17:56:46.511Z,102135.88
2022-12-18T17:59:13.649Z,102142.69
2022-12-18T18:01:44.397Z,102143.91
2022-12-18T18:04:12.122Z,102145.38
2022-12-18T18:06:39.536Z,102127.84
2022-12-18T18:09:08.651Z,102141.97
2022-12-18T18:12:05.667Z,102147.31
2022-12-18T18:14:33.201Z,102151.56
2022-12-18T18:17:04.225Z,102148.38
2022-12-18T18:19:32.689Z,102154.38
2022-12-18T18:21:59.597Z,102149.78
2022-12-18T18:24:26.372Z,102163.25
2022-12-18T18:26:56.728Z,102163.78
2022-12-18T18:29:26.530Z,102158.97
2022-12-18T18:31:54.240Z,102158.75
2022-12-18T18:34:26.507Z,102169.19
2022-12-18T18:36:53.619Z,102155.34
2022-12-18T18:39:21.139Z,102151.22
2022-12-18T18:41:49.245Z,102163.06
2022-12-18T18:44:18.339Z,102153.00
2022-12-18T18:46:45.424Z,102158.81
2022-12-18T18:49:13.739Z,102160.88
2022-12-18T18:51:42.035Z,102155.72
2022-12-18T18:54:09.698Z,102157.41
2022-12-18T18:57:04.116Z,102163.25
2022-12-18T18:59:31.641Z,102150.69
2022-12-18T19:02:00.664Z,102154.22
2022-12-18T19:04:36.408Z,102144.56
2022-12-18T19:07:05.490Z,102146.09
2022-12-18T19:09:32.449Z,102148.72
2022-12-18T19:12:18.258Z,102139.16
2022-12-18T19:14:45.297Z,102129.69
2022-12-18T19:17:12.185Z,102139.34
2022-12-18T19:19:39.663Z,102148.88
2022-12-18T19:22:06.891Z,102151.84
2022-12-18T19:24:33.962Z,102139.78
2022-12-18T19:27:01.027Z,102148.53
2022-12-18T19:29:29.004Z,102139.16
2022-12-18T19:31:55.695Z,102129.78
2022-12-18T19:34:22.670Z,102136.16
2022-12-18T19:36:49.511Z,102125.09
2022-12-18T19:39:19.243Z,102121.53
2022-12-18T19:41:46.868Z,102124.16
2022-12-18T19:44:15.996Z,102120.19
2022-12-18T19:46:44.145Z,102131.28
2022-12-18T19:49:17.558Z,102117.28
2022-12-18T19:51:45.783Z,102120.38
2022-12-18T19:54:17.177Z,102126.22
2022-12-18T19:56:45.407Z,102116.28
2022-12-18T19:59:12.535Z,102117.84
2022-12-18T20:01:40.006Z,102115.50
2022-12-18T20:04:07.570Z,102116.44
2022-12-18T20:06:46.380Z,102113.88
2022-12-18T20:09:13.578Z,102121.59
2022-12-18T20:11:42.043Z,102121.75
2022-12-18T20:14:16.900Z,102134.25
2022-12-18T20:16:50.143Z,102120.34
2022-12-18T20:19:17.571Z,102136.28
2022-12-18T20:21:44.805Z,102132.88
2022-12-18T20:24:12.953Z,102135.75
2022-12-18T20:26:40.644Z,102127.56
2022-12-18T20:29:08.939Z,102117.13
2022-12-18T20:31:36.147Z,102112.81
2022-12-18T20:34:04.900Z,102129.00
2022-12-18T20:36:34.227Z,102134.47
2022-12-18T20:39:05.385Z,102137.94
2022-12-18T20:41:37.871Z,102138.47
2022-12-18T20:44:22.644Z,102127.94
2022-12-18T20:47:00.349Z,102120.34
2022-12-18T20:49:33.063Z,102130.63
2022-12-18T20:52:02.385Z,102137.31
2022-12-18T20:54:29.980Z,102127.56
2022-12-18T20:56:57.028Z,102142.16
2022-12-18T20:59:25.659Z,102146.97
2022-12-18T21:01:56.236Z,102141.22
2022-12-18T21:04:23.645Z,102140.88
2022-12-18T21:06:57.855Z,102141.22
2022-12-18T21:09:37.487Z,102136.25
2022-12-18T21:12:34.860Z,102139.09
2022-12-18T21:15:10.123Z,102142.47
2022-12-18T21:17:44.058Z,102140.06
2022-12-18T21:20:17.761Z,102139.44
2022-12-18T21:22:46.901Z,102130.31
2022-12-18T21:25:13.770Z,102131.72
2022-12-18T21:27:41.142Z,102128.38
2022-12-18T21:30:08.785Z,102132.69
2022-12-18T21:32:35.836Z,102139.75
2022-12-18T21:35:02.681Z,102139.59
2022-12-18T21:37:29.678Z,102143.44
2022-12-18T21:39:56.367Z,102146.19
2022-12-18T21:42:41.835Z,102139.53
2022-12-18T21:45:09.128Z,102134.31
2022-12-18T21:47:36.248Z,102121.00
2022-12-18T21:50:03.839Z,102124.53
2022-12-18T21:52:32.023Z,102119.38
2022-12-18T21:55:07.937Z,102116.50
2022-12-18T21:57:37.863Z,102111.44
2022-12-18T22:00:06.662Z,102101.88
2022-12-18T22:02:33.542Z,102104.78
2022-12-18T22:05:00.719Z,102102.06
2022-12-18T22:07:29.281Z,102091.97
2022-12-18T22:09:56.210Z,102088.56
2022-12-18T22:12:43.192Z,102073.00
2022-12-18T22:15:13.896Z,102083.59
2022-12-18T22:17:50.768Z,102060.25
2022-12-18T22:20:19.977Z,102054.38
2022-12-18T22:22:51.603Z,102071.56
2022-12-18T22:25:18.475Z,102065.47
2022-12-18T22:28:05.357Z,102058.78
2022-12-18T22:30:33.196Z,102057.13
2022-12-18T22:33:01.086Z,102056.22
2022-12-18T22:35:28.653Z,102061.31
2022-12-18T22:37:55.804Z,102058.38
2022-12-18T22:40:26.936Z,102039.75
2022-12-18T22:42:54.823Z,102040.75
2022-12-18T22:45:23.025Z,102048.63
2022-12-18T22:47:50.453Z,102025.66
2022-12-18T22:50:17.771Z,102027.66
2022-12-18T22:52:44.566Z,102036.25
2022-12-18T22:55:11.407Z,102033.03
2022-12-18T22:57:38.038Z,102028.28
2022-12-18T23:00:12.199Z,102019.22
2022-12-18T23:02:39.250Z,102014.06
2022-12-18T23:05:07.712Z,102011.75
2022-12-18T23:07:36.133Z,102015.75
2022-12-18T23:10:03.497Z,102009.09
2022-12-18T23:12:30.583Z,101994.50
2022-12-18T23:14:57.591Z,101991.94
2022-12-18T23:17:24.743Z,101983.41
2022-12-18T23:19:51.578Z,101978.13
2022-12-18T23:22:19.917Z,101976.53
2022-12-18T23:24:47.338Z,101979.25
2022-12-18T23:27:14.466Z,101973.28
2022-12-18T23:29:41.755Z,101979.16
2022-12-18T23:32:09.004Z,101959.94
2022-12-18T23:34:36.262Z,101964.94
2022-12-18T23:37:03.919Z,101975.22
2022-12-18T23:39:32.567Z,101969.75
2022-12-18T23:42:00.028Z,101954.66
2022-12-18T23:44:27.534Z,101951.44
2022-12-18T23:46:55.107Z,101951.44
2022-12-18T23:49:22.370Z,101949.81
2022-12-18T23:51:49.620Z,101941.16
2022-12-18T23:54:16.581Z,101940.66
2022-12-18T23:56:43.788Z,101935.28
2022-12-18T23:59:10.623Z,101922.69
